Time;durP1;ratioP1;P1;durP2;ratioP2;P2;SDS_P1;SDS_P2;PMS_P1;PMS_P2;Temp;Humidity;BMP_temperature;BMP_pressure;BME280_temperature;BME280_humidity;BME280_pressure;Samples;Min_cycle;Max_cycle;Signal;HPM_P1;HPM_P2
2021/11/04 00:04:48;;;;;;;8.43;2.70;;;;;;;;;;10460769;28;20049;-83
2021/11/04 00:09:48;;;;;;;10.50;2.95;;;;;;;;;;10460986;28;20029;-83
2021/11/04 00:14:49;;;;;;;11.68;2.88;;;;;;;;;;10460527;28;20025;-83
2021/11/04 00:19:49;;;;;;;7.40;2.42;;;;;;;;;;10459985;28;20032;-84
2021/11/04 00:24:50;;;;;;;8.77;3.17;;;;;;;;;;10459996;28;20090;-83
2021/11/04 00:29:50;;;;;;;5.13;2.67;;;;;;;;;;10460692;28;20024;-83
2021/11/04 00:34:51;;;;;;;7.00;3.10;;;;;;;;;;10459720;28;20480;-83
2021/11/04 00:39:51;;;;;;;12.20;2.83;;;;;;;;;;10460039;28;20493;-83
2021/11/04 00:44:52;;;;;;;3.90;2.20;;;;;;;;;;10460121;28;20083;-83
2021/11/04 00:49:52;;;;;;;10.40;2.53;;;;;;;;;;10459649;28;20048;-83
2021/11/04 00:54:52;;;;;;;11.90;2.37;;;;;;;;;;10459666;28;20044;-83
2021/11/04 00:59:53;;;;;;;9.23;2.60;;;;;;;;;;10459458;28;20457;-84
2021/11/04 01:04:53;;;;;;;8.80;3.13;;;;;;;;;;10459880;28;20522;-85
2021/11/04 01:09:53;;;;;;;10.50;2.70;;;;;;;;;;10460221;28;20457;-84
2021/11/04 01:14:54;;;;;;;9.30;2.75;;;;;;;;;;10458830;28;20438;-85
2021/11/04 01:19:54;;;;;;;10.43;2.93;;;;;;;;;;10458204;28;20538;-85
2021/11/04 01:24:55;;;;;;;6.43;2.30;;;;;;;;;;10457130;28;20537;-85
2021/11/04 01:29:55;;;;;;;5.67;2.20;;;;;;;;;;10440210;28;20462;-85
2021/11/04 01:34:56;;;;;;;9.88;2.55;;;;;;;;;;10447717;28;20831;-81
2021/11/04 01:39:56;;;;;;;5.40;2.43;;;;;;;;;;10457206;28;20451;-81
2021/11/04 01:44:57;;;;;;;7.38;2.05;;;;;;;;;;10457369;28;20048;-82
2021/11/04 01:49:57;;;;;;;7.37;2.53;;;;;;;;;;10456480;28;20060;-82
2021/11/04 01:54:58;;;;;;;6.30;2.40;;;;;;;;;;10457788;28;20528;-81
2021/11/04 01:59:58;;;;;;;4.85;2.10;;;;;;;;;;10456840;28;20029;-82
2021/11/04 02:05:02;;;;;;;5.50;2.22;;;;;;;;;;10456556;28;20033;-82
2021/11/04 02:10:08;;;;;;;3.83;1.92;;;;;;;;;;10455903;28;20028;-82
2021/11/04 02:15:09;;;;;;;4.43;2.05;;;;;;;;;;10454945;28;20044;-82
2021/11/04 02:20:12;;;;;;;4.20;2.35;;;;;;;;;;10455218;28;20102;-82
2021/11/04 02:25:16;;;;;;;4.53;2.20;;;;;;;;;;10455291;28;20386;-83
2021/11/04 02:30:18;;;;;;;4.45;2.03;;;;;;;;;;10455696;28;20025;-82
2021/11/04 02:35:18;;;;;;;3.50;1.55;;;;;;;;;;10455426;28;20065;-82
2021/11/04 02:40:20;;;;;;;6.38;1.88;;;;;;;;;;10459443;28;20052;-82
2021/11/04 02:45:23;;;;;;;6.07;2.10;;;;;;;;;;10464559;28;20051;-81
2021/11/04 02:50:24;;;;;;;4.75;2.17;;;;;;;;;;10464410;28;20033;-82
2021/11/04 02:55:35;;;;;;;4.75;1.75;;;;;;;;;;10464298;28;20025;-82
2021/11/04 03:00:39;;;;;;;2.80;1.70;;;;;;;;;;10463991;28;20033;-82
2021/11/04 03:05:40;;;;;;;3.38;1.80;;;;;;;;;;10464738;28;20059;-81
2021/11/04 03:10:40;;;;;;;2.70;1.73;;;;;;;;;;10463722;28;20029;-81
2021/11/04 03:15:46;;;;;;;4.78;2.30;;;;;;;;;;10462776;28;20029;-81
2021/11/04 03:20:47;;;;;;;6.53;1.90;;;;;;;;;;10463603;28;20036;-81
2021/11/04 03:25:48;;;;;;;3.33;1.90;;;;;;;;;;10463091;28;20021;-81
2021/11/04 03:30:49;;;;;;;2.75;1.80;;;;;;;;;;10461583;28;20028;-81
2021/11/04 03:35:50;;;;;;;4.60;1.88;;;;;;;;;;10461370;28;20478;-81
2021/11/04 03:40:50;;;;;;;3.63;1.70;;;;;;;;;;10460931;28;20463;-81
2021/11/04 03:45:51;;;;;;;4.47;1.98;;;;;;;;;;10460373;28;20086;-82
2021/11/04 03:50:52;;;;;;;2.92;1.83;;;;;;;;;;10458902;28;20037;-82
2021/11/04 03:55:52;;;;;;;4.43;1.70;;;;;;;;;;10460345;28;20090;-81
2021/11/04 04:00:57;;;;;;;4.13;1.50;;;;;;;;;;10461081;28;20072;-81
2021/11/04 04:06:05;;;;;;;4.30;1.80;;;;;;;;;;10461527;28;20939;-81
2021/11/04 04:11:06;;;;;;;2.42;1.70;;;;;;;;;;10461184;28;20336;-82
2021/11/04 04:16:06;;;;;;;2.75;1.58;;;;;;;;;;10460870;28;20033;-82
2021/11/04 04:21:06;;;;;;;3.47;1.55;;;;;;;;;;10461059;28;20031;-81
2021/11/04 04:26:07;;;;;;;4.53;1.87;;;;;;;;;;10460742;28;20538;-83
2021/11/04 04:31:08;;;;;;;2.83;1.73;;;;;;;;;;10459465;28;20111;-83
2021/11/04 04:36:09;;;;;;;1.77;1.40;;;;;;;;;;10459904;28;20539;-83
2021/11/04 04:41:09;;;;;;;3.05;1.60;;;;;;;;;;10460219;28;20029;-83
2021/11/04 04:46:09;;;;;;;4.13;1.50;;;;;;;;;;10460248;28;20131;-83
2021/11/04 04:51:10;;;;;;;1.80;1.30;;;;;;;;;;10462587;28;20466;-82
2021/11/04 04:56:10;;;;;;;1.97;1.50;;;;;;;;;;10462878;28;20492;-82
2021/11/04 05:01:11;;;;;;;2.20;1.40;;;;;;;;;;10461975;28;20067;-81
2021/11/04 05:06:11;;;;;;;1.93;1.50;;;;;;;;;;10460550;28;20032;-81
2021/11/04 05:11:13;;;;;;;1.80;1.53;;;;;;;;;;10458493;28;20454;-81
2021/11/04 05:16:13;;;;;;;1.77;1.40;;;;;;;;;;10458187;28;20433;-82
2021/11/04 05:21:13;;;;;;;3.07;1.47;;;;;;;;;;10457593;28;20124;-82
2021/11/04 05:26:14;;;;;;;4.20;1.63;;;;;;;;;;10458817;28;20434;-81
2021/11/04 05:31:14;;;;;;;2.07;1.50;;;;;;;;;;10458038;28;20064;-81
2021/11/04 05:36:15;;;;;;;2.75;1.40;;;;;;;;;;10458674;28;20371;-80
2021/11/04 05:41:15;;;;;;;2.50;1.20;;;;;;;;;;10457779;28;20447;-80
2021/11/04 05:46:15;;;;;;;2.67;1.40;;;;;;;;;;10457734;28;20048;-80
2021/11/04 05:51:16;;;;;;;2.17;1.48;;;;;;;;;;10457538;28;20028;-80
2021/11/04 05:56:16;;;;;;;1.97;1.27;;;;;;;;;;10457507;28;20423;-80
2021/11/04 06:01:17;;;;;;;1.67;1.33;;;;;;;;;;10457228;28;20543;-80
2021/11/04 06:06:17;;;;;;;2.00;1.40;;;;;;;;;;10456275;28;20238;-81
2021/11/04 06:11:17;;;;;;;2.73;1.77;;;;;;;;;;10456967;28;20032;-81
2021/11/04 06:16:18;;;;;;;2.30;1.80;;;;;;;;;;10455449;28;20118;-81
2021/11/04 06:21:19;;;;;;;2.80;2.20;;;;;;;;;;10455823;28;20108;-81
2021/11/04 06:26:19;;;;;;;2.20;1.83;;;;;;;;;;10456414;28;20458;-82
2021/11/04 06:31:20;;;;;;;2.70;1.60;;;;;;;;;;10455122;28;20035;-81
2021/11/04 06:36:20;;;;;;;2.20;1.17;;;;;;;;;;10456480;28;20597;-80
2021/11/04 06:41:20;;;;;;;1.63;1.30;;;;;;;;;;10456227;28;20494;-80
2021/11/04 06:46:25;;;;;;;9.47;1.43;;;;;;;;;;10456574;28;20462;-81
2021/11/04 06:51:28;;;;;;;6.00;1.33;;;;;;;;;;10449579;28;20467;-81
2021/11/04 06:56:34;;;;;;;10.40;1.58;;;;;;;;;;10454860;28;20528;-80
2021/11/04 07:01:35;;;;;;;3.95;1.75;;;;;;;;;;10451445;28;20102;-81
2021/11/04 07:06:47;;;;;;;3.42;1.48;;;;;;;;;;10454074;28;20075;-81
2021/11/04 07:11:48;;;;;;;5.53;1.42;;;;;;;;;;10451418;28;20029;-81
2021/11/04 07:16:49;;;;;;;8.77;1.60;;;;;;;;;;10454074;28;20472;-85
2021/11/04 07:22:16;;;;;;;16.77;2.00;;;;;;;;;;10454904;28;20040;-83
2021/11/04 07:27:51;;;;;;;3.97;1.40;;;;;;;;;;10457172;28;20752;-82
2021/11/04 07:32:54;;;;;;;7.15;1.50;;;;;;;;;;10440231;28;20061;-82
2021/11/04 07:37:56;;;;;;;4.63;1.60;;;;;;;;;;10457229;28;20114;-83
2021/11/04 07:42:57;;;;;;;8.40;1.50;;;;;;;;;;10461813;28;20044;-83
2021/11/04 07:47:58;;;;;;;4.25;1.27;;;;;;;;;;10468596;22;20053;-83
2021/11/04 07:52:59;;;;;;;4.03;1.48;;;;;;;;;;10461525;28;20379;-82
2021/11/04 07:57:59;;;;;;;4.20;1.38;;;;;;;;;;10461187;28;20033;-83
2021/11/04 08:03:00;;;;;;;4.97;1.38;;;;;;;;;;10461319;28;20103;-83
2021/11/04 08:08:00;;;;;;;2.30;1.40;;;;;;;;;;10446693;28;20387;-82
2021/11/04 08:13:07;;;;;;;10.37;1.47;;;;;;;;;;10458473;28;20032;-82
2021/11/04 08:18:08;;;;;;;1.13;1.02;;;;;;;;;;10418181;28;20568;-83
2021/11/04 08:23:14;;;;;;;3.40;1.30;;;;;;;;;;10419810;28;20032;-82
2021/11/04 08:28:14;;;;;;;6.90;1.35;;;;;;;;;;10420944;28;20026;-83
2021/11/04 08:33:15;;;;;;;5.40;1.30;;;;;;;;;;10419329;28;20029;-83
2021/11/04 08:38:16;;;;;;;2.47;1.20;;;;;;;;;;10417182;28;20429;-82
2021/11/04 08:43:17;;;;;;;1.52;1.10;;;;;;;;;;10416818;28;20108;-83
2021/11/04 08:48:19;;;;;;;2.08;1.10;;;;;;;;;;10417393;28;20049;-83
2021/11/04 08:53:20;;;;;;;2.42;1.05;;;;;;;;;;10417426;28;20400;-83
2021/11/04 08:58:22;;;;;;;3.10;0.98;;;;;;;;;;10417451;28;20128;-83
2021/11/04 09:03:22;;;;;;;1.92;1.00;;;;;;;;;;10415200;28;20033;-85
2021/11/04 09:08:24;;;;;;;4.60;1.00;;;;;;;;;;10414727;28;20041;-85
2021/11/04 09:13:24;;;;;;;4.88;1.15;;;;;;;;;;10412044;28;20030;-86
2021/11/04 09:18:26;;;;;;;1.55;1.00;;;;;;;;;;10413529;28;20064;-84
2021/11/04 09:23:26;;;;;;;2.92;1.10;;;;;;;;;;10415973;28;20037;-84
2021/11/04 09:28:27;;;;;;;2.45;1.10;;;;;;;;;;10413094;28;20029;-85
2021/11/04 09:33:27;;;;;;;2.07;1.00;;;;;;;;;;10417486;28;20036;-85
2021/11/04 09:38:27;;;;;;;1.43;1.10;;;;;;;;;;10417874;28;20450;-85
2021/11/04 09:43:28;;;;;;;3.40;1.43;;;;;;;;;;10408957;28;20573;-85
2021/11/04 09:48:35;;;;;;;3.30;1.17;;;;;;;;;;10395039;28;20029;-83
2021/11/04 09:53:35;;;;;;;5.82;1.17;;;;;;;;;;10412287;28;20509;-84
2021/11/04 09:58:36;;;;;;;1.27;1.05;;;;;;;;;;10411350;28;20156;-85
2021/11/04 10:03:36;;;;;;;3.13;1.23;;;;;;;;;;10411850;28;20037;-84
2021/11/04 10:08:40;;;;;;;1.67;1.00;;;;;;;;;;10414875;28;20485;-85
2021/11/04 10:13:41;;;;;;;3.50;1.20;;;;;;;;;;10412640;28;20546;-84
2021/11/04 10:18:43;;;;;;;2.08;1.10;;;;;;;;;;10410417;28;20030;-84
2021/11/04 10:23:45;;;;;;;1.75;1.38;;;;;;;;;;10412362;28;20058;-85
2021/11/04 10:28:48;;;;;;;4.43;1.25;;;;;;;;;;10412245;28;20480;-85
2021/11/04 10:33:50;;;;;;;3.60;1.65;;;;;;;;;;10414976;28;20171;-84
2021/11/04 10:38:59;;;;;;;2.10;1.20;;;;;;;;;;10393225;28;20037;-84
2021/11/04 10:44:08;;;;;;;4.32;1.40;;;;;;;;;;10410959;28;20060;-85
2021/11/04 10:49:09;;;;;;;2.05;1.23;;;;;;;;;;10400587;28;20029;-84
2021/11/04 10:54:13;;;;;;;1.77;1.10;;;;;;;;;;10411555;28;20029;-83
2021/11/04 10:59:16;;;;;;;1.55;1.10;;;;;;;;;;10413242;28;20029;-84
2021/11/04 11:04:19;;;;;;;1.92;1.00;;;;;;;;;;10422584;28;20029;-83
2021/11/04 11:09:25;;;;;;;5.70;1.20;;;;;;;;;;10420489;28;20037;-84
2021/11/04 11:14:26;;;;;;;2.67;1.10;;;;;;;;;;10419381;28;20053;-82
2021/11/04 11:19:29;;;;;;;3.28;1.20;;;;;;;;;;10418257;28;20036;-83
2021/11/04 11:24:32;;;;;;;2.05;1.10;;;;;;;;;;10418088;28;20108;-84
2021/11/04 11:29:39;;;;;;;3.63;1.30;;;;;;;;;;10417809;28;20430;-83
2021/11/04 11:34:39;;;;;;;3.30;0.95;;;;;;;;;;10417615;28;20017;-84
2021/11/04 11:39:51;;;;;;;1.80;1.07;;;;;;;;;;10417298;28;20038;-84
2021/11/04 11:44:56;;;;;;;3.45;1.23;;;;;;;;;;10417605;28;20832;-83
2021/11/04 11:50:15;;;;;;;2.42;1.00;;;;;;;;;;10418502;28;20034;-84
2021/11/04 11:55:36;;;;;;;2.85;1.00;;;;;;;;;;10418361;28;20040;-84
2021/11/04 12:01:03;;;;;;;2.50;1.13;;;;;;;;;;10418625;28;20042;-84
2021/11/04 12:06:08;;;;;;;1.75;1.10;;;;;;;;;;10417881;28;20034;-84
2021/11/04 12:11:09;;;;;;;0.80;0.80;;;;;;;;;;10414304;28;20041;-84
2021/11/04 12:16:17;;;;;;;0.95;0.90;;;;;;;;;;10411778;28;20113;-84
2021/11/04 12:21:34;;;;;;;1.02;0.80;;;;;;;;;;10409708;28;20078;-86
2021/11/04 12:26:37;;;;;;;1.83;1.02;;;;;;;;;;10410963;28;20490;-86
2021/11/04 12:31:40;;;;;;;1.95;0.80;;;;;;;;;;10418011;28;20026;-83
2021/11/04 12:36:42;;;;;;;1.38;0.80;;;;;;;;;;10417944;28;20029;-84
2021/11/04 12:41:51;;;;;;;0.73;0.73;;;;;;;;;;10417343;28;20025;-84
2021/11/04 12:46:52;;;;;;;1.02;0.88;;;;;;;;;;10415593;28;20395;-84
2021/11/04 12:51:54;;;;;;;3.05;1.00;;;;;;;;;;10430082;28;20033;-83
2021/11/04 12:56:58;;;;;;;2.25;1.00;;;;;;;;;;10414480;28;20036;-84
2021/11/04 13:02:11;;;;;;;0.98;0.85;;;;;;;;;;10416306;28;20464;-84
2021/11/04 13:07:21;;;;;;;2.95;0.88;;;;;;;;;;10415322;28;20061;-83
2021/11/04 13:12:24;;;;;;;1.77;0.88;;;;;;;;;;10413011;28;20029;-83
2021/11/04 13:17:43;;;;;;;1.67;0.90;;;;;;;;;;10415325;28;20037;-85
2021/11/04 13:23:06;;;;;;;1.45;1.00;;;;;;;;;;10411149;28;20061;-84
2021/11/04 13:28:13;;;;;;;3.95;0.95;;;;;;;;;;10412474;28;20046;-83
2021/11/04 13:33:15;;;;;;;2.45;0.90;;;;;;;;;;10410003;28;20479;-84
2021/11/04 13:38:16;;;;;;;1.27;0.82;;;;;;;;;;10411050;28;20048;-85
2021/11/04 13:43:41;;;;;;;1.98;0.93;;;;;;;;;;10412486;28;20383;-86
2021/11/04 13:48:47;;;;;;;1.27;1.00;;;;;;;;;;10404514;28;20402;-91
2021/11/04 13:53:48;;;;;;;0.90;0.85;;;;;;;;;;10413443;28;20025;-81
2021/11/04 13:58:48;;;;;;;3.53;0.90;;;;;;;;;;10410532;28;20398;-84
2021/11/04 14:04:13;;;;;;;4.68;1.10;;;;;;;;;;10412465;28;20472;-82
2021/11/04 14:09:32;;;;;;;20.98;1.75;;;;;;;;;;10412173;28;20348;-88
2021/11/04 14:14:47;;;;;;;26.60;1.35;;;;;;;;;;10412206;28;20060;-77
2021/11/04 14:19:47;;;;;;;37.67;2.50;;;;;;;;;;10413865;28;20474;-80
2021/11/04 14:24:49;;;;;;;25.45;1.95;;;;;;;;;;10414776;28;20112;-80
2021/11/04 14:29:50;;;;;;;6.70;1.48;;;;;;;;;;10413526;28;20100;-80
2021/11/04 14:34:50;;;;;;;4.77;1.10;;;;;;;;;;10410759;28;20105;-80
2021/11/04 14:39:51;;;;;;;8.40;1.40;;;;;;;;;;10406450;28;20052;-79
2021/11/04 14:44:51;;;;;;;14.50;1.50;;;;;;;;;;10414515;28;20056;-79
2021/11/04 14:49:51;;;;;;;14.77;1.30;;;;;;;;;;10412910;28;20048;-79
2021/11/04 14:54:52;;;;;;;3.77;1.50;;;;;;;;;;10411496;28;20128;-79
2021/11/04 14:59:52;;;;;;;8.32;1.60;;;;;;;;;;10411984;28;20034;-79
2021/11/04 15:04:52;;;;;;;1.67;1.10;;;;;;;;;;10408907;28;20057;-80
2021/11/04 15:09:53;;;;;;;13.47;1.53;;;;;;;;;;10406359;28;20994;-80
2021/11/04 15:14:53;;;;;;;6.90;1.20;;;;;;;;;;10409605;28;20460;-80
2021/11/04 15:19:54;;;;;;;4.27;1.13;;;;;;;;;;10411298;28;20041;-79
2021/11/04 15:24:54;;;;;;;5.15;1.33;;;;;;;;;;10412042;28;20065;-79
2021/11/04 15:29:54;;;;;;;2.47;1.00;;;;;;;;;;10411970;28;20061;-79
2021/11/04 15:34:55;;;;;;;7.82;1.30;;;;;;;;;;10410181;28;20442;-80
2021/11/04 15:39:55;;;;;;;4.50;0.82;;;;;;;;;;10411789;28;20464;-80
2021/11/04 15:44:56;;;;;;;6.10;0.97;;;;;;;;;;10426579;28;20053;-80
2021/11/04 15:49:56;;;;;;;6.33;1.13;;;;;;;;;;10423710;28;20797;-80
2021/11/04 15:54:56;;;;;;;6.00;1.23;;;;;;;;;;10418766;28;20471;-80
2021/11/04 15:59:57;;;;;;;1.23;0.90;;;;;;;;;;10418154;28;20036;-81
2021/11/04 16:04:57;;;;;;;4.00;0.80;;;;;;;;;;10416064;28;20064;-79
2021/11/04 16:09:58;;;;;;;1.15;1.02;;;;;;;;;;10421289;28;20570;-80
2021/11/04 16:14:59;;;;;;;2.85;0.85;;;;;;;;;;10417690;28;20380;-81
2021/11/04 16:19:59;;;;;;;6.78;1.13;;;;;;;;;;10415055;28;20436;-80
2021/11/04 16:24:59;;;;;;;2.30;0.87;;;;;;;;;;10416997;28;20057;-80
2021/11/04 16:30:00;;;;;;;2.25;1.00;;;;;;;;;;10416295;28;20056;-80
2021/11/04 16:35:00;;;;;;;1.60;1.00;;;;;;;;;;10417067;28;20053;-81
2021/11/04 16:40:01;;;;;;;2.63;1.00;;;;;;;;;;10416668;28;20033;-79
2021/11/04 16:45:02;;;;;;;1.35;1.00;;;;;;;;;;10415009;28;20467;-80
2021/11/04 16:50:05;;;;;;;7.10;1.20;;;;;;;;;;10422677;28;20521;-80
2021/11/04 16:55:07;;;;;;;7.78;1.33;;;;;;;;;;10425903;28;20059;-80
2021/11/04 17:00:09;;;;;;;2.38;0.77;;;;;;;;;;10418594;28;20053;-80
2021/11/04 17:05:09;;;;;;;5.38;1.65;;;;;;;;;;10422012;28;20130;-80
2021/11/04 17:10:11;;;;;;;2.55;0.90;;;;;;;;;;10417287;28;20443;-80
2021/11/04 17:15:12;;;;;;;2.38;1.38;;;;;;;;;;10412500;28;20371;-80
2021/11/04 17:20:13;;;;;;;2.92;1.55;;;;;;;;;;10412085;28;20033;-80
2021/11/04 17:25:15;;;;;;;1.67;1.27;;;;;;;;;;10414231;28;20063;-79
2021/11/04 17:30:17;;;;;;;5.45;1.70;;;;;;;;;;10410948;28;20140;-80
2021/11/04 17:35:18;;;;;;;1.92;1.33;;;;;;;;;;10412735;28;20032;-80
2021/11/04 17:40:18;;;;;;;4.40;1.23;;;;;;;;;;10413072;28;20033;-80
2021/11/04 17:45:19;;;;;;;3.92;1.23;;;;;;;;;;10412034;28;20180;-80
2021/11/04 17:50:19;;;;;;;10.88;2.03;;;;;;;;;;10414545;28;20041;-79
2021/11/04 17:55:20;;;;;;;7.97;1.60;;;;;;;;;;10415074;28;20459;-78
2021/11/04 18:00:21;;;;;;;6.88;1.65;;;;;;;;;;10414778;28;20034;-79
2021/11/04 18:05:22;;;;;;;7.43;1.50;;;;;;;;;;10409475;28;20025;-79
2021/11/04 18:10:22;;;;;;;2.72;1.20;;;;;;;;;;10406897;28;20039;-80
2021/11/04 18:15:23;;;;;;;2.65;1.40;;;;;;;;;;10415338;28;20034;-79
2021/11/04 18:20:23;;;;;;;1.75;1.30;;;;;;;;;;10411384;28;20029;-78
2021/11/04 18:25:24;;;;;;;5.57;1.40;;;;;;;;;;10409792;28;20489;-79
2021/11/04 18:30:24;;;;;;;4.18;1.50;;;;;;;;;;10407472;28;20504;-80
2021/11/04 18:35:25;;;;;;;3.70;1.33;;;;;;;;;;10411487;28;20029;-80
2021/11/04 18:40:26;;;;;;;8.80;1.42;;;;;;;;;;10425728;28;20128;-80
2021/11/04 18:45:26;;;;;;;4.00;1.48;;;;;;;;;;10421089;28;20364;-79
2021/11/04 18:50:26;;;;;;;4.87;1.70;;;;;;;;;;10414479;28;20087;-80
2021/11/04 18:55:27;;;;;;;7.53;1.95;;;;;;;;;;10411640;28;20522;-79
2021/11/04 19:00:27;;;;;;;5.28;1.80;;;;;;;;;;10414088;28;20040;-79
2021/11/04 19:05:28;;;;;;;3.63;1.70;;;;;;;;;;10414657;28;20479;-78
2021/11/04 19:10:28;;;;;;;5.33;1.50;;;;;;;;;;10412373;28;20503;-79
2021/11/04 19:15:29;;;;;;;3.03;1.60;;;;;;;;;;10412074;28;20033;-79
2021/11/04 19:20:30;;;;;;;11.25;1.95;;;;;;;;;;10412562;28;20057;-79
2021/11/04 19:25:30;;;;;;;5.18;2.08;;;;;;;;;;10429244;28;20491;-80
2021/11/04 19:30:33;;;;;;;5.72;2.20;;;;;;;;;;10418622;28;20498;-79
2021/11/04 19:35:33;;;;;;;3.60;2.15;;;;;;;;;;10422245;28;20124;-80
2021/11/04 19:40:34;;;;;;;4.60;2.20;;;;;;;;;;10419184;28;20108;-79
2021/11/04 19:45:35;;;;;;;7.70;2.20;;;;;;;;;;10549717;22;20140;-79
2021/11/04 19:50:35;;;;;;;4.50;2.15;;;;;;;;;;10495569;28;20355;-80
2021/11/04 19:55:36;;;;;;;6.00;2.40;;;;;;;;;;10500002;28;20064;-81
2021/11/04 20:00:36;;;;;;;5.63;2.53;;;;;;;;;;10495300;28;20039;-79
2021/11/04 20:05:37;;;;;;;4.13;2.20;;;;;;;;;;10486733;28;20028;-79
2021/11/04 20:10:37;;;;;;;7.43;2.13;;;;;;;;;;10476990;28;20458;-79
2021/11/04 20:15:38;;;;;;;10.18;2.80;;;;;;;;;;10476808;28;20025;-79
2021/11/04 20:20:38;;;;;;;11.30;3.08;;;;;;;;;;10497076;28;20124;-79
2021/11/04 20:25:39;;;;;;;4.88;3.25;;;;;;;;;;10501330;28;20370;-81
2021/11/04 20:30:39;;;;;;;8.07;3.07;;;;;;;;;;10499213;28;20033;-79
2021/11/04 20:35:39;;;;;;;13.47;3.20;;;;;;;;;;10503946;28;20524;-79
2021/11/04 20:40:40;;;;;;;6.00;3.45;;;;;;;;;;10515558;28;20472;-79
2021/11/04 20:45:40;;;;;;;12.23;3.10;;;;;;;;;;10489036;28;20041;-79
2021/11/04 20:50:40;;;;;;;9.77;3.67;;;;;;;;;;10486443;28;20120;-78
2021/11/04 20:55:41;;;;;;;6.53;3.45;;;;;;;;;;10494909;28;20028;-79
2021/11/04 21:00:41;;;;;;;6.00;3.38;;;;;;;;;;10489140;28;20044;-79
2021/11/04 21:05:45;;;;;;;7.25;3.50;;;;;;;;;;10498800;28;20462;-79
2021/11/04 21:10:47;;;;;;;10.65;3.22;;;;;;;;;;10486001;28;20375;-80
2021/11/04 21:15:48;;;;;;;17.15;3.20;;;;;;;;;;10498340;28;20052;-79
2021/11/04 21:20:48;;;;;;;10.23;3.20;;;;;;;;;;10485410;28;20447;-80
2021/11/04 21:25:50;;;;;;;12.57;2.92;;;;;;;;;;10473534;28;20395;-79
2021/11/04 21:30:50;;;;;;;7.85;3.22;;;;;;;;;;10481529;28;20105;-79
2021/11/04 21:35:51;;;;;;;12.70;3.15;;;;;;;;;;10480898;28;20115;-80
2021/11/04 21:40:54;;;;;;;7.40;3.45;;;;;;;;;;10492270;28;20040;-80
2021/11/04 21:45:55;;;;;;;6.35;3.42;;;;;;;;;;10497686;28;20041;-79
2021/11/04 21:50:56;;;;;;;4.50;2.80;;;;;;;;;;10493547;28;20028;-80
2021/11/04 21:55:57;;;;;;;4.72;3.00;;;;;;;;;;10491064;28;20032;-79
2021/11/04 22:01:00;;;;;;;5.13;3.00;;;;;;;;;;10488931;28;20111;-80
2021/11/04 22:06:04;;;;;;;9.30;3.20;;;;;;;;;;10489615;28;20037;-80
2021/11/04 22:11:04;;;;;;;6.57;2.85;;;;;;;;;;10480296;28;20114;-80
2021/11/04 22:16:05;;;;;;;8.10;3.10;;;;;;;;;;10496831;28;20074;-79
2021/11/04 22:21:05;;;;;;;4.55;2.67;;;;;;;;;;10482184;28;20036;-79
2021/11/04 22:26:06;;;;;;;6.17;2.77;;;;;;;;;;10495328;28;20028;-79
2021/11/04 22:31:14;;;;;;;4.95;3.10;;;;;;;;;;10493749;28;21017;-79
2021/11/04 22:36:16;;;;;;;4.50;2.77;;;;;;;;;;10480961;28;20037;-79
2021/11/04 22:41:16;;;;;;;4.85;2.55;;;;;;;;;;10472561;28;20038;-79
2021/11/04 22:46:17;;;;;;;4.18;2.72;;;;;;;;;;10494269;28;20119;-79
2021/11/04 22:51:18;;;;;;;3.97;2.70;;;;;;;;;;10495986;28;20111;-79
2021/11/04 22:56:19;;;;;;;5.15;2.60;;;;;;;;;;10458412;28;20861;-79
2021/11/04 23:01:19;;;;;;;5.40;2.58;;;;;;;;;;10471858;28;20025;-79
2021/11/04 23:06:21;;;;;;;4.65;2.53;;;;;;;;;;10485475;28;20661;-81
2021/11/04 23:11:21;;;;;;;11.20;3.13;;;;;;;;;;10479137;28;20025;-81
2021/11/04 23:16:23;;;;;;;3.53;2.40;;;;;;;;;;10494487;28;20033;-83
2021/11/04 23:21:23;;;;;;;5.85;2.70;;;;;;;;;;10503759;28;20029;-82
2021/11/04 23:26:24;;;;;;;5.85;2.90;;;;;;;;;;10501040;28;21162;-81
2021/11/04 23:31:25;;;;;;;13.35;2.45;;;;;;;;;;10484444;28;20033;-81
2021/11/04 23:36:25;;;;;;;5.00;2.38;;;;;;;;;;10477130;28;20024;-81
2021/11/04 23:41:26;;;;;;;6.63;2.78;;;;;;;;;;10500542;28;20031;-81
2021/11/04 23:46:26;;;;;;;3.37;2.27;;;;;;;;;;10489246;28;20056;-80
2021/11/04 23:51:26;;;;;;;4.43;2.40;;;;;;;;;;10502091;28;20460;-80
2021/11/04 23:56:27;;;;;;;4.38;2.50;;;;;;;;;;10488634;28;20036;-81
